Time;durP1;ratioP1;P1;durP2;ratioP2;P2;SDS_P1;SDS_P2;PMS_P1;PMS_P2;Temp;Humidity;BMP_temperature;BMP_pressure;BME280_temperature;BME280_humidity;BME280_pressure;Samples;Min_cycle;Max_cycle;Signal;HPM_P1;HPM_P2
2022/03/07 00:01:01;;;;;;;10.23;7.95;;;;;;;1.38;65.26;102573.13;5029073;28;20033;-67
2022/03/07 00:03:26;;;;;;;12.48;8.05;;;;;;;1.37;64.99;102571.44;5033343;28;20030;-67
2022/03/07 00:05:51;;;;;;;15.27;8.68;;;;;;;1.38;64.43;102557.97;5017084;28;20026;-67
2022/03/07 00:08:17;;;;;;;11.98;8.48;;;;;;;1.38;65.29;102562.47;5012995;28;20433;-67
2022/03/07 00:10:42;;;;;;;13.48;8.50;;;;;;;1.40;65.04;102561.38;5014075;28;20041;-67
2022/03/07 00:13:07;;;;;;;12.60;8.52;;;;;;;1.45;65.26;102566.34;5016384;28;20033;-68
2022/03/07 00:15:32;;;;;;;14.25;8.82;;;;;;;1.37;64.67;102561.59;5031344;28;20041;-67
2022/03/07 00:17:58;;;;;;;11.45;8.45;;;;;;;1.40;64.54;102553.38;5017462;28;20033;-67
2022/03/07 00:20:23;;;;;;;13.82;8.43;;;;;;;1.41;64.56;102557.72;5029382;28;20518;-66
2022/03/07 00:22:48;;;;;;;13.02;8.65;;;;;;;1.37;64.80;102566.09;5032797;28;20029;-67
2022/03/07 00:25:16;;;;;;;14.57;8.23;;;;;;;1.30;65.24;102565.75;5020351;28;20358;-67
2022/03/07 00:27:41;;;;;;;16.15;9.10;;;;;;;1.23;65.26;102554.69;5015699;28;20033;-68
2022/03/07 00:30:07;;;;;;;12.48;8.55;;;;;;;1.14;65.83;102565.25;5032674;28;20040;-67
2022/03/07 00:32:33;;;;;;;15.85;9.40;;;;;;;1.09;65.29;102562.97;5026868;28;20033;-67
2022/03/07 00:34:58;;;;;;;13.07;8.63;;;;;;;1.03;66.31;102563.44;5012803;28;20041;-67
2022/03/07 00:37:24;;;;;;;13.20;8.85;;;;;;;1.04;65.38;102570.44;5013300;28;20397;-67
2022/03/07 00:39:49;;;;;;;12.93;9.23;;;;;;;0.94;66.45;102564.16;5031678;28;20697;-67
2022/03/07 00:42:14;;;;;;;12.75;8.60;;;;;;;0.91;66.25;102569.69;5030758;28;20025;-67
2022/03/07 00:44:39;;;;;;;13.75;9.80;;;;;;;0.84;66.63;102569.34;5029513;28;20041;-67
2022/03/07 00:47:05;;;;;;;12.52;9.63;;;;;;;0.80;67.12;102574.06;5011379;28;20417;-67
2022/03/07 00:49:30;;;;;;;12.93;9.73;;;;;;;0.77;66.13;102574.31;5012918;28;20030;-67
2022/03/07 00:51:57;;;;;;;13.15;9.68;;;;;;;0.83;66.57;102571.16;5021901;28;20028;-67
2022/03/07 00:54:22;;;;;;;14.57;9.57;;;;;;;0.81;66.86;102569.59;5032611;28;20555;-67
2022/03/07 00:56:48;;;;;;;13.48;9.52;;;;;;;0.73;66.99;102572.00;5032560;28;20070;-67
2022/03/07 00:59:13;;;;;;;13.02;9.55;;;;;;;0.70;67.20;102573.91;5032666;28;20025;-68
2022/03/07 01:01:38;;;;;;;13.80;9.63;;;;;;;0.64;67.04;102565.56;5028906;28;20033;-67
2022/03/07 01:04:04;;;;;;;16.00;9.93;;;;;;;0.67;67.37;102578.63;5030952;28;20389;-67
2022/03/07 01:06:29;;;;;;;13.63;9.50;;;;;;;0.67;66.75;102579.47;5024279;28;20045;-67
2022/03/07 01:08:54;;;;;;;12.20;9.10;;;;;;;0.74;66.62;102579.88;5012508;28;20044;-68
2022/03/07 01:11:20;;;;;;;16.33;9.45;;;;;;;0.75;67.00;102576.22;5012938;28;20480;-67
2022/03/07 01:13:45;;;;;;;12.95;9.07;;;;;;;0.74;66.76;102581.66;5012760;28;20065;-67
2022/03/07 01:16:10;;;;;;;13.73;9.07;;;;;;;0.73;66.29;102580.00;5031670;28;20033;-67
2022/03/07 01:18:36;;;;;;;14.57;9.00;;;;;;;0.76;66.46;102583.25;5032096;28;20483;-68
2022/03/07 01:21:01;;;;;;;17.48;8.90;;;;;;;0.72;66.54;102579.13;5028226;28;20033;-68
2022/03/07 01:23:27;;;;;;;14.65;9.02;;;;;;;0.71;66.73;102577.44;5032368;28;20036;-67
2022/03/07 01:25:52;;;;;;;11.68;8.70;;;;;;;0.77;65.89;102576.97;5027157;28;20030;-68
2022/03/07 01:28:17;;;;;;;12.98;8.95;;;;;;;0.78;66.59;102575.97;5031602;28;20120;-68
2022/03/07 01:30:42;;;;;;;16.83;8.63;;;;;;;0.78;66.29;102581.31;5021527;28;20069;-67
2022/03/07 01:33:08;;;;;;;14.05;9.20;;;;;;;0.80;66.27;102581.19;5012170;28;20485;-68
2022/03/07 01:35:33;;;;;;;13.23;8.38;;;;;;;0.79;65.63;102568.84;5028778;28;20041;-68
2022/03/07 01:37:58;;;;;;;14.73;9.20;;;;;;;0.72;66.41;102567.63;5031055;28;20144;-67
2022/03/07 01:40:24;;;;;;;14.32;8.93;;;;;;;0.74;66.21;102573.69;5026005;28;20026;-68
2022/03/07 01:42:49;;;;;;;12.30;8.93;;;;;;;0.71;66.69;102564.13;5013153;28;20370;-66
2022/03/07 01:45:18;;;;;;;14.50;9.38;;;;;;;0.67;66.70;102567.97;5013644;28;20524;-66
2022/03/07 01:47:44;;;;;;;13.52;9.07;;;;;;;0.64;66.30;102568.22;5016026;28;20037;-67
2022/03/07 01:50:12;;;;;;;15.52;8.95;;;;;;;0.62;66.48;102570.13;5016194;28;20124;-67
2022/03/07 01:52:41;;;;;;;12.05;8.60;;;;;;;0.57;66.75;102572.31;5016160;28;20030;-68
2022/03/07 01:55:08;;;;;;;15.95;9.10;;;;;;;0.50;67.42;102572.78;5015746;28;20102;-68
2022/03/07 01:57:38;;;;;;;12.50;8.85;;;;;;;0.45;67.35;102563.44;5016703;28;20107;-67
2022/03/07 02:00:14;;;;;;;12.90;9.02;;;;;;;0.44;67.09;102559.94;5030667;28;20033;-67
2022/03/07 02:02:39;;;;;;;14.85;8.88;;;;;;;0.41;67.08;102557.50;5013275;28;20083;-67
2022/03/07 02:05:05;;;;;;;14.45;8.52;;;;;;;0.42;67.04;102563.66;5015438;28;20037;-67
2022/03/07 02:07:30;;;;;;;13.48;8.40;;;;;;;0.37;66.90;102556.03;5015718;28;20370;-68
2022/03/07 02:09:56;;;;;;;13.98;8.82;;;;;;;0.37;67.36;102564.00;5016801;28;20026;-67
2022/03/07 02:12:21;;;;;;;11.85;8.75;;;;;;;0.39;67.14;102554.06;5015244;28;20041;-68
2022/03/07 02:14:47;;;;;;;12.57;8.57;;;;;;;0.37;66.59;102556.03;5015545;28;20037;-67
2022/03/07 02:17:12;;;;;;;14.25;8.60;;;;;;;0.32;67.40;102548.38;5016226;28;20041;-67
2022/03/07 02:19:37;;;;;;;13.30;9.10;;;;;;;0.31;68.08;102554.66;5031340;28;20108;-67
2022/03/07 02:22:04;;;;;;;12.05;8.82;;;;;;;0.29;67.79;102553.09;5034339;28;20025;-68
2022/03/07 02:24:30;;;;;;;13.68;9.57;;;;;;;0.26;67.63;102545.34;5034895;28;20038;-67
2022/03/07 02:27:09;;;;;;;14.75;8.93;;;;;;;0.28;67.56;102548.72;5034942;28;20116;-67
2022/03/07 02:29:35;;;;;;;14.07;8.70;;;;;;;0.29;68.16;102545.94;5028933;28;20036;-67
2022/03/07 02:32:01;;;;;;;11.13;8.90;;;;;;;0.34;67.37;102545.59;5034025;28;20496;-68
2022/03/07 02:34:27;;;;;;;12.38;9.05;;;;;;;0.31;67.67;102545.84;5033074;28;20473;-68
2022/03/07 02:36:52;;;;;;;15.63;9.70;;;;;;;0.31;67.75;102545.84;5019371;28;20040;-68
2022/03/07 02:39:18;;;;;;;13.95;9.68;;;;;;;0.27;67.87;102541.69;5014974;28;20068;-67
2022/03/07 02:41:44;;;;;;;15.15;9.50;;;;;;;0.19;68.17;102544.94;5015027;28;20129;-68
2022/03/07 02:44:10;;;;;;;16.25;9.93;;;;;;;0.19;68.69;102544.09;5015821;28;20060;-67
2022/03/07 02:46:35;;;;;;;16.08;9.80;;;;;;;0.13;68.30;102546.25;5015063;28;20473;-68
2022/03/07 02:49:01;;;;;;;15.35;10.00;;;;;;;0.13;68.81;102548.91;5014470;28;20026;-68
2022/03/07 02:51:27;;;;;;;15.60;9.68;;;;;;;0.12;68.75;102547.22;5015306;28;20029;-67
2022/03/07 02:53:52;;;;;;;16.13;10.50;;;;;;;0.14;69.01;102545.28;5015102;28;20448;-67
2022/03/07 02:56:18;;;;;;;12.43;9.80;;;;;;;0.11;68.49;102545.50;5024498;28;20477;-67
2022/03/07 02:58:43;;;;;;;13.55;10.10;;;;;;;0.06;68.95;102534.38;5026231;28;20038;-67
2022/03/07 03:01:08;;;;;;;14.00;9.57;;;;;;;0.03;68.86;102542.59;5013332;28;20389;-68
2022/03/07 03:03:34;;;;;;;14.43;10.07;;;;;;;0.00;69.45;102545.47;5015794;28;20477;-67
2022/03/07 03:05:59;;;;;;;17.92;10.25;;;;;;;0.04;69.37;102540.75;5018990;28;20080;-67
2022/03/07 03:08:25;;;;;;;14.18;10.27;;;;;;;-0.05;69.34;102539.63;5014375;28;20056;-67
2022/03/07 03:10:52;;;;;;;14.43;9.75;;;;;;;-0.07;69.38;102537.06;5015614;28;20041;-67
2022/03/07 03:13:20;;;;;;;17.23;9.70;;;;;;;-0.12;69.46;102530.38;5021165;28;20037;-67
2022/03/07 03:15:45;;;;;;;14.98;9.95;;;;;;;-0.09;69.60;102540.81;5025029;28;20378;-67
2022/03/07 03:18:11;;;;;;;14.05;9.95;;;;;;;-0.08;69.74;102534.53;5015194;28;20030;-67
2022/03/07 03:20:37;;;;;;;17.13;10.38;;;;;;;-0.09;69.47;102535.47;5015890;28;20033;-70
2022/03/07 03:23:02;;;;;;;15.88;10.57;;;;;;;-0.09;69.63;102543.47;5033654;28;20424;-68
2022/03/07 03:25:27;;;;;;;14.30;10.77;;;;;;;-0.10;69.66;102536.47;5034152;28;20025;-67
2022/03/07 03:27:53;;;;;;;18.13;10.15;;;;;;;-0.09;69.16;102543.47;5033647;28;20067;-69
2022/03/07 03:30:18;;;;;;;16.00;10.63;;;;;;;-0.13;70.07;102542.03;5032932;28;20108;-74
2022/03/07 03:32:44;;;;;;;14.70;10.68;;;;;;;-0.15;69.63;102543.94;5029585;28;20044;-70
2022/03/07 03:35:09;;;;;;;14.65;10.48;;;;;;;-0.17;69.86;102546.69;5015743;28;20122;-68
2022/03/07 03:37:36;;;;;;;16.10;10.80;;;;;;;-0.25;70.33;102539.28;5013822;28;20363;-66
2022/03/07 03:40:01;;;;;;;15.65;10.27;;;;;;;-0.18;69.57;102539.69;5033217;28;20484;-67
2022/03/07 03:42:26;;;;;;;16.10;10.88;;;;;;;-0.19;70.12;102538.81;5033584;28;20076;-66
2022/03/07 03:44:52;;;;;;;17.35;10.27;;;;;;;-0.13;70.17;102542.03;5033719;28;20033;-66
2022/03/07 03:47:17;;;;;;;18.48;11.20;;;;;;;-0.14;70.35;102550.94;5033625;28;20120;-66
2022/03/07 03:49:42;;;;;;;17.48;9.80;;;;;;;-0.15;69.87;102543.94;5033356;28;20033;-66
2022/03/07 03:52:08;;;;;;;18.67;10.73;;;;;;;-0.12;70.08;102555.22;5013830;28;20481;-66
2022/03/07 03:54:34;;;;;;;16.50;10.73;;;;;;;-0.14;70.10;102545.63;5013770;28;20033;-67
2022/03/07 03:56:59;;;;;;;17.85;10.95;;;;;;;-0.14;69.84;102541.16;5013808;28;20486;-67
2022/03/07 03:59:24;;;;;;;14.05;10.25;;;;;;;-0.12;69.48;102554.34;5013514;28;20033;-66
2022/03/07 04:01:50;;;;;;;16.42;10.80;;;;;;;-0.13;70.02;102544.69;5011134;28;20034;-66
2022/03/07 04:04:15;;;;;;;17.13;11.10;;;;;;;-0.08;69.72;102555.81;5013000;28;20033;-66
2022/03/07 04:06:44;;;;;;;17.20;11.23;;;;;;;-0.14;69.23;102556.28;5031113;28;20033;-66
2022/03/07 04:09:20;;;;;;;17.05;10.50;;;;;;;-0.11;70.22;102556.06;5032635;28;20476;-66
2022/03/07 04:11:46;;;;;;;22.40;12.63;;;;;;;-0.15;69.84;102559.88;5033331;28;20377;-66
2022/03/07 04:14:12;;;;;;;18.27;10.65;;;;;;;-0.20;70.05;102553.13;5032985;28;20037;-66
2022/03/07 04:16:38;;;;;;;16.23;10.88;;;;;;;-0.24;70.10;102551.63;5033217;28;20025;-66
2022/03/07 04:19:10;;;;;;;16.10;10.80;;;;;;;-0.25;70.12;102552.59;5032837;28;20052;-66
2022/03/07 04:21:37;;;;;;;15.95;10.30;;;;;;;-0.25;70.21;102549.91;5013646;28;20042;-66
2022/03/07 04:24:03;;;;;;;17.35;11.35;;;;;;;-0.23;69.54;102548.03;5013126;28;20034;-67
2022/03/07 04:26:28;;;;;;;19.10;10.77;;;;;;;-0.23;70.29;102547.16;5013006;28;20030;-66
2022/03/07 04:28:55;;;;;;;16.85;10.68;;;;;;;-0.27;69.69;102541.22;5013132;28;20104;-66
2022/03/07 04:31:20;;;;;;;18.05;11.23;;;;;;;-0.28;69.77;102549.31;5012943;28;20044;-66
2022/03/07 04:33:46;;;;;;;16.08;11.30;;;;;;;-0.27;70.31;102545.66;5013234;28;20030;-67
2022/03/07 04:36:13;;;;;;;15.55;11.27;;;;;;;-0.29;70.33;102542.28;5030769;28;20036;-67
2022/03/07 04:38:38;;;;;;;15.25;10.90;;;;;;;-0.27;69.98;102548.31;5032863;28;20109;-66
2022/03/07 04:41:04;;;;;;;17.25;11.13;;;;;;;-0.25;70.15;102547.25;5032794;28;20109;-67
2022/03/07 04:43:29;;;;;;;21.15;11.18;;;;;;;-0.29;70.28;102543.13;5032594;28;20041;-66
2022/03/07 04:45:55;;;;;;;16.90;10.80;;;;;;;-0.27;70.16;102546.53;5032725;28;20032;-66
2022/03/07 04:48:20;;;;;;;19.70;11.23;;;;;;;-0.25;70.08;102549.09;5030992;28;20056;-66
2022/03/07 04:50:47;;;;;;;16.70;11.55;;;;;;;-0.28;70.07;102546.66;5015921;28;20421;-66
2022/03/07 04:53:12;;;;;;;19.27;11.77;;;;;;;-0.32;70.68;102548.66;5012693;28;20034;-67
2022/03/07 04:55:37;;;;;;;15.38;10.73;;;;;;;-0.36;71.04;102552.53;5012601;28;20025;-66
2022/03/07 04:58:04;;;;;;;21.65;11.07;;;;;;;-0.40;70.73;102543.91;5012832;28;20034;-66
2022/03/07 05:00:30;;;;;;;18.05;11.70;;;;;;;-0.51;71.16;102553.63;5010014;28;20493;-67
2022/03/07 05:02:55;;;;;;;17.25;11.73;;;;;;;-0.58;71.85;102553.22;5012890;28;20029;-67
2022/03/07 05:05:21;;;;;;;18.67;11.90;;;;;;;-0.74;72.32;102540.16;5012493;28;20112;-66
2022/03/07 05:07:49;;;;;;;19.13;12.13;;;;;;;-0.79;72.05;102550.28;5012819;28;20038;-66
2022/03/07 05:10:16;;;;;;;18.92;11.90;;;;;;;-0.79;72.40;102545.78;5024285;28;20034;-66
2022/03/07 05:12:41;;;;;;;17.02;12.20;;;;;;;-0.80;72.37;102551.22;5032436;28;20064;-66
2022/03/07 05:15:07;;;;;;;16.90;11.80;;;;;;;-0.81;72.73;102546.88;5028734;28;20076;-66
2022/03/07 05:17:42;;;;;;;13.80;11.13;;;;;;;-0.81;72.74;102545.06;5012342;28;20033;-66
2022/03/07 05:20:08;;;;;;;19.05;12.02;;;;;;;-0.80;72.02;102544.13;5015921;28;20550;-66
2022/03/07 05:22:33;;;;;;;17.23;12.10;;;;;;;-0.70;71.98;102549.63;5016077;28;20478;-66
2022/03/07 05:24:59;;;;;;;17.10;11.55;;;;;;;-0.65;71.50;102542.19;5016610;28;20057;-66
2022/03/07 05:27:24;;;;;;;17.23;11.65;;;;;;;-0.65;71.58;102544.84;5016244;28;20377;-64
2022/03/07 05:29:49;;;;;;;20.55;12.65;;;;;;;-0.59;71.60;102549.72;5016315;28;20029;-66
2022/03/07 05:32:14;;;;;;;22.60;11.90;;;;;;;-0.52;71.89;102543.97;5022938;28;20033;-66
2022/03/07 05:34:40;;;;;;;19.48;12.75;;;;;;;-0.57;71.52;102547.78;5036028;28;20401;-66
2022/03/07 05:37:05;;;;;;;18.00;12.00;;;;;;;-0.68;71.97;102545.06;5036191;28;20030;-66
2022/03/07 05:39:30;;;;;;;17.83;12.55;;;;;;;-0.73;71.86;102549.84;5035819;28;20461;-66
2022/03/07 05:41:55;;;;;;;18.10;12.23;;;;;;;-0.76;72.55;102550.06;5026816;28;20492;-66
2022/03/07 05:44:21;;;;;;;19.35;12.57;;;;;;;-0.70;72.05;102560.25;5035189;28;20029;-66
2022/03/07 05:46:46;;;;;;;24.27;13.45;;;;;;;-0.69;71.97;102556.66;5035697;28;20396;-67
2022/03/07 05:49:11;;;;;;;18.10;12.43;;;;;;;-0.69;71.43;102550.47;5035631;28;20035;-66
2022/03/07 05:51:37;;;;;;;17.05;12.48;;;;;;;-0.73;72.40;102560.47;5035612;28;20048;-66
2022/03/07 05:54:02;;;;;;;20.90;12.57;;;;;;;-0.70;71.71;102554.94;5035847;28;20454;-66
2022/03/07 05:56:27;;;;;;;18.83;12.73;;;;;;;-0.70;71.82;102559.41;5035296;28;20453;-67
2022/03/07 05:58:53;;;;;;;19.77;12.68;;;;;;;-0.64;71.99;102551.84;5019192;28;20453;-67
2022/03/07 06:01:18;;;;;;;23.38;13.20;;;;;;;-0.63;71.81;102550.88;5013388;28;20026;-67
2022/03/07 06:03:43;;;;;;;21.05;12.82;;;;;;;-0.62;71.90;102557.03;5015965;28;20480;-66
2022/03/07 06:06:09;;;;;;;18.13;12.07;;;;;;;-0.60;71.74;102566.63;5015708;28;20026;-67
2022/03/07 06:08:35;;;;;;;18.25;12.32;;;;;;;-0.63;71.74;102561.53;5015459;28;20040;-66
2022/03/07 06:11:01;;;;;;;18.33;12.60;;;;;;;-0.59;71.50;102563.00;5015763;28;20026;-67
2022/03/07 06:13:26;;;;;;;16.98;12.93;;;;;;;-0.55;71.58;102569.78;5016782;28;20036;-66
2022/03/07 06:15:51;;;;;;;19.77;12.57;;;;;;;-0.61;71.59;102570.22;5015587;28;20029;-66
2022/03/07 06:18:16;;;;;;;17.52;12.25;;;;;;;-0.56;71.66;102578.75;5015185;28;20034;-66
2022/03/07 06:20:41;;;;;;;17.80;12.60;;;;;;;-0.57;71.66;102581.50;5015823;28;20030;-66
2022/03/07 06:23:07;;;;;;;18.45;13.00;;;;;;;-0.65;71.93;102574.09;5015504;28;20041;-66
2022/03/07 06:25:34;;;;;;;22.23;13.77;;;;;;;-0.69;72.14;102575.25;5015229;28;20081;-67
2022/03/07 06:28:01;;;;;;;24.67;14.10;;;;;;;-0.68;72.08;102581.41;5015370;28;20030;-67
2022/03/07 06:30:26;;;;;;;20.80;13.73;;;;;;;-0.68;72.50;102584.06;5021805;28;20040;-66
2022/03/07 06:32:51;;;;;;;25.23;13.85;;;;;;;-0.65;72.48;102599.81;5035167;28;20022;-66
2022/03/07 06:35:17;;;;;;;20.60;14.07;;;;;;;-0.71;72.29;102595.75;5034842;28;20032;-67
2022/03/07 06:37:47;;;;;;;20.98;13.68;;;;;;;-0.67;72.69;102591.94;5034993;28;20029;-66
2022/03/07 06:40:12;;;;;;;23.60;13.82;;;;;;;-0.66;71.95;102598.13;5034973;28;20075;-66
2022/03/07 06:42:38;;;;;;;18.00;13.40;;;;;;;-0.61;72.29;102596.81;5034440;28;20030;-67
2022/03/07 06:45:03;;;;;;;21.02;14.35;;;;;;;-0.62;71.74;102602.25;5027864;28;20088;-67
2022/03/07 06:47:29;;;;;;;18.25;13.25;;;;;;;-0.60;71.69;102601.19;5014568;28;20534;-66
2022/03/07 06:49:57;;;;;;;18.70;13.27;;;;;;;-0.57;72.34;102597.47;5015136;28;20022;-66
2022/03/07 06:52:22;;;;;;;22.25;13.90;;;;;;;-0.57;71.74;102595.66;5013380;28;20026;-66
2022/03/07 06:54:47;;;;;;;23.42;14.68;;;;;;;-0.54;71.94;102605.22;5013689;28;20076;-66
2022/03/07 06:57:12;;;;;;;21.95;13.43;;;;;;;-0.50;71.58;102597.88;5014627;28;20022;-66
2022/03/07 06:59:41;;;;;;;20.48;13.43;;;;;;;-0.47;71.85;102602.97;5015673;28;20473;-66
2022/03/07 07:02:06;;;;;;;21.30;14.23;;;;;;;-0.47;71.53;102608.28;5012433;28;20113;-67
2022/03/07 07:04:32;;;;;;;19.88;13.90;;;;;;;-0.47;71.78;102602.97;5014181;28;20056;-67
2022/03/07 07:06:57;;;;;;;19.02;13.63;;;;;;;-0.43;71.83;102609.78;5014723;28;20351;-66
2022/03/07 07:09:23;;;;;;;20.38;14.10;;;;;;;-0.49;71.86;102602.25;5013931;28;20044;-66
2022/03/07 07:11:48;;;;;;;20.75;14.60;;;;;;;-0.49;71.37;102604.91;5014266;28;20089;-67
2022/03/07 07:14:13;;;;;;;22.13;14.70;;;;;;;-0.49;71.50;102604.91;5016573;28;20068;-66
2022/03/07 07:16:38;;;;;;;22.73;14.63;;;;;;;-0.45;71.82;102609.06;5034017;28;20048;-66
2022/03/07 07:19:04;;;;;;;23.05;14.70;;;;;;;-0.43;71.76;102609.78;5033859;28;20041;-66
2022/03/07 07:21:29;;;;;;;22.90;14.50;;;;;;;-0.42;71.99;102603.50;5033972;28;20539;-67
2022/03/07 07:23:54;;;;;;;21.05;14.75;;;;;;;-0.34;71.71;102602.97;5034142;28;20036;-66
2022/03/07 07:26:19;;;;;;;22.88;13.95;;;;;;;-0.29;71.07;102596.31;5032605;28;20068;-67
2022/03/07 07:28:46;;;;;;;22.38;14.50;;;;;;;-0.25;71.51;102603.13;5031838;28;20512;-70
2022/03/07 07:31:11;;;;;;;24.77;14.52;;;;;;;-0.25;71.18;102603.13;5014238;28;20037;-70
2022/03/07 07:33:36;;;;;;;24.17;15.13;;;;;;;-0.18;71.25;102600.91;5013942;28;20034;-68
2022/03/07 07:36:03;;;;;;;21.48;14.65;;;;;;;-0.20;70.93;102595.69;5014399;28;20041;-67
2022/03/07 07:38:28;;;;;;;20.30;14.43;;;;;;;-0.16;70.46;102601.63;5024631;28;20042;-68
2022/03/07 07:40:55;;;;;;;23.60;13.13;;;;;;;-0.15;70.91;102591.81;5019101;28;20548;-67
2022/03/07 07:43:21;;;;;;;22.25;14.23;;;;;;;-0.12;70.84;102602.25;5011531;28;20045;-67
2022/03/07 07:45:47;;;;;;;17.85;13.85;;;;;;;-0.05;70.27;102606.16;5013243;28;20033;-69
2022/03/07 07:48:12;;;;;;;19.08;14.25;;;;;;;-0.10;70.61;102609.16;5013613;28;20037;-68
2022/03/07 07:50:38;;;;;;;20.23;14.40;;;;;;;-0.03;70.65;102613.09;5013444;28;20061;-69
2022/03/07 07:53:03;;;;;;;20.15;13.82;;;;;;;0.01;69.92;102613.69;5012231;28;20041;-69
2022/03/07 07:55:29;;;;;;;21.00;13.65;;;;;;;0.10;70.47;102615.69;5013430;28;20030;-69
2022/03/07 07:57:54;;;;;;;18.80;13.85;;;;;;;0.19;70.46;102623.97;5012496;28;20029;-69
2022/03/07 08:00:20;;;;;;;21.23;13.40;;;;;;;0.25;69.45;102615.53;5013830;28;20041;-69
2022/03/07 08:02:52;;;;;;;18.90;13.50;;;;;;;0.24;70.13;102613.81;5089682;27;20386;-67
2022/03/07 08:05:18;;;;;;;17.45;13.18;;;;;;;0.30;69.66;102614.22;5090019;28;20042;-68
2022/03/07 08:07:44;;;;;;;17.05;12.88;;;;;;;0.44;69.49;102620.31;5088646;28;20047;-68
2022/03/07 08:10:11;;;;;;;16.90;12.52;;;;;;;0.48;68.39;102614.66;5088707;28;20032;-67
2022/03/07 08:12:37;;;;;;;15.68;12.43;;;;;;;0.57;68.40;102614.94;5089670;28;20032;-67
2022/03/07 08:15:05;;;;;;;16.90;12.30;;;;;;;0.64;68.39;102621.50;5089195;28;20498;-68
2022/03/07 08:17:30;;;;;;;19.52;12.63;;;;;;;0.69;67.99;102624.66;5089580;28;20035;-67
2022/03/07 08:19:56;;;;;;;20.02;12.48;;;;;;;0.78;68.19;102628.44;5088519;28;20028;-67
2022/03/07 08:22:21;;;;;;;17.05;12.55;;;;;;;0.83;68.28;102621.81;5089504;28;20541;-67
2022/03/07 08:24:46;;;;;;;14.57;11.38;;;;;;;0.93;66.79;102615.75;5089458;28;20039;-67
2022/03/07 08:27:12;;;;;;;18.65;11.63;;;;;;;0.98;66.47;102614.44;5089735;28;20459;-67
2022/03/07 08:29:37;;;;;;;17.05;11.23;;;;;;;1.02;65.94;102617.72;5070156;28;20025;-68
2022/03/07 08:32:02;;;;;;;15.73;11.30;;;;;;;1.12;65.26;102623.19;5069354;28;20121;-68
2022/03/07 08:34:28;;;;;;;17.38;10.88;;;;;;;1.18;65.98;102623.56;5069089;28;20025;-68
2022/03/07 08:36:53;;;;;;;17.40;11.48;;;;;;;1.28;65.39;102629.00;5069316;28;20071;-68
2022/03/07 08:39:18;;;;;;;17.65;10.57;;;;;;;1.34;65.14;102625.03;5069186;28;20028;-67
2022/03/07 08:41:43;;;;;;;21.00;11.65;;;;;;;1.46;64.63;102623.22;5075555;28;20042;-67
2022/03/07 08:44:09;;;;;;;15.98;10.50;;;;;;;1.52;63.90;102620.91;5079102;28;20037;-69
2022/03/07 08:46:34;;;;;;;16.40;11.40;;;;;;;1.52;64.31;102628.91;5068662;28;20032;-68
2022/03/07 08:48:59;;;;;;;14.30;10.52;;;;;;;1.58;64.01;102622.25;5068861;28;20040;-68
2022/03/07 08:51:24;;;;;;;14.40;10.13;;;;;;;1.62;64.38;102621.03;5073447;28;20046;-69
2022/03/07 08:53:50;;;;;;;15.23;10.88;;;;;;;1.73;63.18;102618.34;5085056;28;20056;-68
2022/03/07 08:56:15;;;;;;;15.65;10.57;;;;;;;1.82;63.33;102619.44;5089024;28;20111;-69
2022/03/07 08:58:41;;;;;;;12.68;9.55;;;;;;;1.91;63.33;102618.69;5088740;28;20058;-68
2022/03/07 09:01:06;;;;;;;12.68;9.68;;;;;;;2.01;63.29;102604.56;5086127;28;20037;-68
2022/03/07 09:03:31;;;;;;;15.55;9.05;;;;;;;2.07;62.35;102604.09;5088144;28;20078;-68
2022/03/07 09:05:57;;;;;;;15.05;8.90;;;;;;;2.10;60.90;102603.84;5071988;28;20036;-68
2022/03/07 09:08:22;;;;;;;13.65;9.50;;;;;;;2.15;61.67;102606.97;5068066;28;20025;-67
2022/03/07 09:10:48;;;;;;;10.77;9.00;;;;;;;2.19;61.00;102600.41;5068294;28;20483;-73
2022/03/07 09:13:13;;;;;;;13.55;9.27;;;;;;;2.26;60.91;102600.75;5060544;28;20124;-74
2022/03/07 09:15:39;;;;;;;12.68;9.02;;;;;;;2.35;60.76;102607.16;5053750;28;20082;-74
2022/03/07 09:18:05;;;;;;;13.73;8.85;;;;;;;2.34;60.78;102592.09;5055281;28;20039;-70
2022/03/07 09:20:30;;;;;;;11.85;9.00;;;;;;;2.45;60.63;102600.06;5069244;28;20107;-68
2022/03/07 09:22:55;;;;;;;12.35;8.23;;;;;;;2.46;58.70;102596.41;5075260;28;20020;-68
2022/03/07 09:25:21;;;;;;;12.18;8.25;;;;;;;2.51;59.67;102599.56;5073839;28;20036;-67
2022/03/07 09:27:46;;;;;;;12.60;7.65;;;;;;;2.60;59.04;102598.78;5074865;28;20029;-67
2022/03/07 09:30:13;;;;;;;11.10;7.60;;;;;;;2.64;58.47;102592.22;5075058;28;20029;-73
2022/03/07 09:32:39;;;;;;;12.90;7.93;;;;;;;2.71;57.87;102595.19;5074651;28;20033;-70
2022/03/07 09:35:05;;;;;;;8.02;6.93;;;;;;;2.79;57.12;102589.19;5065264;28;20042;-68
2022/03/07 09:37:30;;;;;;;9.40;7.28;;;;;;;2.87;57.03;102588.53;5054574;28;20037;-67
2022/03/07 09:39:56;;;;;;;11.43;6.53;;;;;;;2.94;56.64;102590.53;5054787;28;20021;-70
2022/03/07 09:42:21;;;;;;;10.95;6.80;;;;;;;3.03;56.80;102591.59;5054745;28;20025;-69
2022/03/07 09:44:47;;;;;;;9.40;6.70;;;;;;;3.10;57.16;102594.59;5054470;28;20029;-69
2022/03/07 09:47:13;;;;;;;9.02;6.68;;;;;;;3.17;56.25;102579.69;5055021;28;20437;-68
2022/03/07 09:49:38;;;;;;;9.27;6.15;;;;;;;3.23;55.63;102583.66;5065351;28;20040;-69
2022/03/07 09:52:04;;;;;;;8.20;6.38;;;;;;;3.25;55.45;102587.06;5074252;28;20028;-67
2022/03/07 09:54:30;;;;;;;9.52;6.72;;;;;;;3.25;55.04;102577.22;5074321;28;20028;-69
2022/03/07 09:56:55;;;;;;;8.45;6.30;;;;;;;3.27;55.99;102577.91;5074794;28;20021;-69
2022/03/07 09:59:22;;;;;;;10.20;5.97;;;;;;;3.29;54.65;102578.66;5074234;28;20051;-68
2022/03/07 10:02:09;;;;;;;7.30;5.93;;;;;;;3.32;54.98;102572.16;5071860;28;20033;-68
2022/03/07 10:04:41;;;;;;;9.60;5.53;;;;;;;3.36;55.43;102577.09;5074120;28;20372;-67
2022/03/07 10:07:06;;;;;;;;;;;;;;;3.44;56.34;102570.22;5072040;28;20440;-67
2022/03/07 10:09:31;;;;;;;8.15;5.72;;;;;;;3.47;54.00;102569.97;5054082;28;19995;-73
2022/03/07 10:12:05;;;;;;;11.77;5.55;;;;;;;3.51;53.53;102560.69;5054222;28;20029;-68
2022/03/07 10:14:44;;;;;;;14.65;5.60;;;;;;;3.56;54.74;102550.41;5054073;28;20033;-68
2022/03/07 10:17:24;;;;;;;7.32;5.20;;;;;;;3.60;54.39;102565.22;5054320;28;20092;-68
2022/03/07 10:19:51;;;;;;;7.82;5.40;;;;;;;3.57;53.24;102560.13;5053803;28;20048;-69
2022/03/07 10:22:19;;;;;;;6.68;4.85;;;;;;;3.60;54.11;102565.22;5059823;28;20056;-69
2022/03/07 10:24:45;;;;;;;6.90;5.15;;;;;;;3.63;52.78;102554.22;5072711;28;20090;-68
2022/03/07 10:27:23;;;;;;;6.53;4.70;;;;;;;3.66;53.15;102564.66;5073908;28;20029;-66
2022/03/07 10:29:48;;;;;;;8.60;4.82;;;;;;;3.74;52.62;102558.63;5073716;28;20611;-72
2022/03/07 10:32:17;;;;;;;6.28;4.80;;;;;;;3.80;52.49;102557.22;5074075;28;20484;-69
2022/03/07 10:34:43;;;;;;;8.68;5.00;;;;;;;3.91;53.18;102546.41;5073290;28;20413;-71
2022/03/07 10:37:08;;;;;;;6.15;4.28;;;;;;;4.00;53.47;102553.59;5073346;28;20028;-73
2022/03/07 10:39:33;;;;;;;6.30;4.57;;;;;;;4.05;52.85;102559.38;5068777;28;20558;-69
2022/03/07 10:41:59;;;;;;;9.35;4.97;;;;;;;4.08;52.67;102550.22;5055951;28;20027;-67
2022/03/07 10:44:28;;;;;;;7.00;4.82;;;;;;;4.11;52.64;102549.06;5053601;28;20043;-67
2022/03/07 10:47:05;;;;;;;5.82;5.10;;;;;;;4.17;52.57;102537.81;5052152;28;20129;-67
2022/03/07 10:49:30;;;;;;;7.65;4.85;;;;;;;4.21;52.03;102526.69;5053324;28;20150;-68
2022/03/07 10:51:55;;;;;;;9.15;5.28;;;;;;;4.30;52.63;102522.28;5068815;28;20123;-68
2022/03/07 10:54:22;;;;;;;7.75;4.80;;;;;;;4.39;51.74;102521.44;5053103;28;20072;-69
2022/03/07 10:56:49;;;;;;;6.63;4.78;;;;;;;4.42;51.92;102523.84;5053069;28;20033;-67
2022/03/07 10:59:29;;;;;;;7.72;4.55;;;;;;;4.34;51.67;102515.66;5066414;28;20041;-67
2022/03/07 11:02:04;;;;;;;7.60;4.75;;;;;;;4.39;51.15;102512.53;5070042;28;20032;-69
2022/03/07 11:04:30;;;;;;;5.65;4.78;;;;;;;4.46;52.11;102502.09;5073114;28;20033;-70
2022/03/07 11:06:56;;;;;;;8.60;4.97;;;;;;;4.51;51.72;102495.31;5071485;28;20061;-68
2022/03/07 11:09:21;;;;;;;12.05;5.18;;;;;;;4.61;51.89;102500.66;5055019;28;20056;-69
2022/03/07 11:11:47;;;;;;;7.10;4.78;;;;;;;4.68;51.87;102496.41;5071532;28;20357;-74
2022/03/07 11:14:13;;;;;;;10.80;4.65;;;;;;;4.81;52.37;102485.34;5073034;28;20024;-69